Ternholm — OWIM2 — position and weather

sailwx.info

Track history (hours):
 
Tides and Currents Weather Stations Pressure Air Temp Water Temp Dewpoint Dewpoint Depression Visibility Wind Speed Wind Dir Waves Ship Positions

Ternholm

Last reported at 2016-Jul-29 22:34 UTC. Time now 2016-Jul-29 23:33 UTC.
Position N 54°34' E 011°12'.

Length 141 m; draft 8.4 m.

Type: Tanker. MMSI: 219076000.

Date/timePositionNaut miles runAvg speedWind from/ knotsBaromVisibWave heightAir tempDewpointWater temp
2016-Jul-29 22:34N 54°34' E 011°12'1211.7
2016-Jul-29 21:33N 54°41' E 010°55'1110.5
2016-Jul-29 20:34N 54°51' E 010°52'1110.8
2016-Jul-29 19:34N 55°01' E 011°01'1111.2
2016-Jul-29 18:33N 55°12' E 011°05'1111.1
2016-Jul-29 17:31N 55°23' E 011°01'4210.5
2016-Jul-29 13:28N 56°05' E 011°07'4012.0
2016-Jul-29 10:11N 56°39' E 011°45'711.9
2016-Jul-29 09:34N 56°45' E 011°52'1211.8
2016-Jul-29 08:33N 56°56' E 011°45'1111.3
2016-Jul-29 07:33N 57°07' E 011°37'1111.5
2016-Jul-29 06:34N 57°18' E 011°30'1111.2
2016-Jul-29 05:34N 57°29' E 011°34'1211.9
2016-Jul-29 04:33N 57°39' E 011°44'5 4.8
2016-Jul-29 03:31N 57°41' E 011°52'0 0.0
2016-Jul-29 02:31N 57°41' E 011°52'0 0.0
2016-Jul-29 01:31N 57°41' E 011°52'0 0.0
2016-Jul-29 00:31N 57°41' E 011°52'0 0.0
2016-Jul-28 23:31N 57°41' E 011°52'0 0.0
2016-Jul-28 22:31N 57°41' E 011°52'0 0.0
2016-Jul-28 21:31N 57°41' E 011°52'0 0.0
2016-Jul-28 20:31N 57°41' E 011°52'0 0.0
2016-Jul-28 19:31N 57°41' E 011°52'0 0.0
2016-Jul-28 18:31N 57°41' E 011°52'0 0.0
2016-Jul-28 17:33N 57°41' E 011°52'0 0.0
2016-Jul-28 16:33N 57°41' E 011°52'1 1.1
2016-Jul-28 15:33N 57°41' E 011°51'2 2.0
2016-Jul-28 14:33N 57°40' E 011°47'0 0.0
2016-Jul-28 13:32N 57°40' E 011°47'0 0.0
2016-Jul-28 12:32N 57°40' E 011°47'0 0.0
2016-Jul-28 11:32N 57°40' E 011°47'0 0.0
2016-Jul-28 10:32N 57°40' E 011°47'0 0.0
2016-Jul-28 09:32N 57°40' E 011°47'0 0.0
2016-Jul-28 08:32N 57°40' E 011°47'0 0.0
2016-Jul-28 07:32N 57°40' E 011°47'2 2.1
2016-Jul-28 06:33N 57°41' E 011°51'1 1.0
2016-Jul-28 05:31N 57°41' E 011°53'0 0.0
2016-Jul-28 04:31N 57°41' E 011°53'0 0.0
2016-Jul-28 03:31N 57°41' E 011°53'0 0.0
2016-Jul-28 02:31N 57°41' E 011°53'0 0.0
2016-Jul-28 01:31N 57°41' E 011°53'0 0.0
2016-Jul-28 00:31N 57°41' E 011°53'0 0.0
2016-Jul-27 23:31N 57°41' E 011°53'0 0.0
2016-Jul-27 22:31N 57°41' E 011°53'0 0.4
2016-Jul-27 21:33N 57°41' E 011°52'10 9.7
2016-Jul-27 20:33N 57°35' E 011°38'1212.3
2016-Jul-27 19:34N 57°23' E 011°42'1211.9
2016-Jul-27 18:33N 57°13' E 011°53'1211.9
2016-Jul-27 17:33N 57°01' E 012°01'1212.1
2016-Jul-27 16:33N 56°50' E 012°08'1212.1
2016-Jul-27 15:33N 56°38' E 012°14'1211.9
2016-Jul-27 14:32N 56°26' E 012°19'1111.5
2016-Jul-27 13:33N 56°15' E 012°24'1212.5
2016-Jul-27 12:34N 56°05' E 012°36'1212.4
2016-Jul-27 11:34N 55°53' E 012°45'1211.9
2016-Jul-27 10:34N 55°43' E 012°53'10 9.5
2016-Jul-27 09:33N 55°34' E 012°48'1111.4
2016-Jul-27 08:33N 55°23' E 012°41'10 9.4
2016-Jul-27 07:33N 55°16' E 012°52'1211.6
2016-Jul-27 06:34N 55°15' E 013°12'1211.7
2016-Jul-27 05:33N 55°15' E 013°33'1211.7
2016-Jul-27 04:33N 55°14' E 013°53'1211.7
2016-Jul-27 03:33N 55°13' E 014°14'1111.1
2016-Jul-27 02:33N 55°21' E 014°27'1111.5
2016-Jul-27 01:33N 55°29' E 014°42'1211.7
2016-Jul-27 00:34N 55°35' E 014°60'1211.7
2016-Jul-26 23:33N 55°41' E 015°18'11411.5
2016-Jul-26 13:33N 56°45' E 018°09'1311.6
2016-Jul-26 12:28N 56°53' E 018°27'17611.7
2016-Jul-25 21:25N 59°13' E 021°47'1011.7
2016-Jul-25 20:33N 59°19' E 022°02'1211.7
2016-Jul-25 19:34N 59°26' E 022°20'1111.4
2016-Jul-25 18:33N 59°32' E 022°39'1211.6
2016-Jul-25 17:33N 59°35' E 023°01'1211.7
2016-Jul-25 16:34N 59°38' E 023°24'1211.7
2016-Jul-25 15:34N 59°41' E 023°46'1211.7
2016-Jul-25 14:33N 59°45' E 024°08'1411.7
2016-Jul-25 13:22N 59°48' E 024°35'1111.5
2016-Jul-25 12:27N 59°50' E 024°56'1111.6
2016-Jul-25 11:31N 59°52' E 025°17'1111.7
2016-Jul-25 10:34N 59°54' E 025°39'1211.7
2016-Jul-25 09:34N 59°58' E 026°01'8 8.3
2016-Jul-25 08:33N 60°03' E 026°14'1212.1
2016-Jul-25 07:33N 60°14' E 026°24'1212.5
2016-Jul-25 06:34N 60°22' E 026°43'1211.9
2016-Jul-25 05:32N 60°23' E 027°07'8 7.6
2016-Jul-25 04:32N 60°31' E 027°10'0 0.0
2016-Jul-25 03:32N 60°31' E 027°10'0 0.0
2016-Jul-25 02:32N 60°31' E 027°10'0 0.0
2016-Jul-25 01:29N 60°31' E 027°10'0 0.0
2016-Jul-25 00:32N 60°31' E 027°10'0 0.0
2016-Jul-24 23:32N 60°31' E 027°10'0 0.0
2016-Jul-24 22:29N 60°31' E 027°10'0 0.0
2016-Jul-24 21:32N 60°31' E 027°10'0 0.0
2016-Jul-24 20:32N 60°31' E 027°10'0 0.0
2016-Jul-24 14:31N 60°31' E 027°10'0 0.0
2016-Jul-24 13:31N 60°31' E 027°10'0 0.0
2016-Jul-24 12:31N 60°31' E 027°10'0 0.0
2016-Jul-24 11:31N 60°31' E 027°10'0 0.0
2016-Jul-24 10:07N 60°31' E 027°10'0 0.0
2016-Jul-24 09:31N 60°31' E 027°10'0 0.0
2016-Jul-24 08:31N 60°31' E 027°10'0 0.0
2016-Jul-24 06:22N 60°31' E 027°10'0 0.0
2016-Jul-24 05:34N 60°31' E 027°10'2 2.5
2016-Jul-24 04:34N 60°29' E 027°13'10 9.8
2016-Jul-24 03:34N 60°21' E 027°05'1312.8
2016-Jul-24 02:34N 60°21' E 026°39'1212.2
2016-Jul-24 01:34N 60°11' E 026°23'3311.1
2016-Jul-23 22:33N 59°51' E 025°30'1212.0
2016-Jul-23 21:33N 59°49' E 025°07'1212.0
2016-Jul-23 20:33N 59°46' E 024°44'1212.0
2016-Jul-23 19:34N 59°43' E 024°21'1211.9
2016-Jul-23 18:34N 59°39' E 023°58'2412.0
2016-Jul-23 16:33N 59°32' E 023°13'31011.5
2016-Jul-22 13:32N 55°55' E 016°19'1311.7
2016-Jul-22 12:27N 55°49' E 015°59'1011.7
2016-Jul-22 11:34N 55°44' E 015°43'1211.7
2016-Jul-22 10:29N 55°38' E 015°23'1111.7
2016-Jul-22 09:33N 55°32' E 015°06'1211.7
2016-Jul-22 08:34N 55°27' E 014°49'1211.6
2016-Jul-22 07:34N 55°19' E 014°33'2311.7
2016-Jul-22 05:34N 55°01' E 014°08'1111.4
2016-Jul-22 04:34N 54°57' E 013°49'1111.4
2016-Jul-22 03:34N 54°53' E 013°30'1211.5
2016-Jul-22 02:34N 54°50' E 013°11'1211.7
2016-Jul-22 01:34N 54°47' E 012°52'1111.3
2016-Jul-22 00:34N 54°42' E 012°34'1211.6
2016-Jul-21 23:34N 54°34' E 012°19'1111.1
2016-Jul-21 22:34N 54°24' E 012°09'1110.9
2016-Jul-21 21:34N 54°25' E 011°50'1010.4
2016-Jul-21 20:34N 54°28' E 011°33'1110.5
2016-Jul-21 19:34N 54°33' E 011°17'1010.0
2016-Jul-21 18:33N 54°38' E 011°02'9 9.4
2016-Jul-21 17:34N 54°45' E 010°51'1110.6
2016-Jul-21 16:34N 54°55' E 010°54'1010.1
2016-Jul-21 15:34N 55°04' E 011°02'1110.4
2016-Jul-21 14:31N 55°15' E 011°05'  
Track history (hours):
 
Tides and Currents Weather Stations Pressure Air Temp Water Temp Dewpoint Dewpoint Depression Visibility Wind Speed Wind Dir Waves Ship Positions

Ternholm

Last reported at 2016-Jul-29 22:34 UTC. Time now 2016-Jul-29 23:33 UTC.
Position N 54°34' E 011°12'.

Length 141 m; draft 8.4 m.

Type: Tanker. MMSI: 219076000.

Date/timePositionNaut miles runAvg speedWind from/ knotsBaromVisibWave heightAir tempDewpointWater temp
2016-Jul-29 22:34N 54°34' E 011°12'1211.7
2016-Jul-29 21:33N 54°41' E 010°55'1110.5
2016-Jul-29 20:34N 54°51' E 010°52'1110.8
2016-Jul-29 19:34N 55°01' E 011°01'1111.2
2016-Jul-29 18:33N 55°12' E 011°05'1111.1
2016-Jul-29 17:31N 55°23' E 011°01'4210.5
2016-Jul-29 13:28N 56°05' E 011°07'4012.0
2016-Jul-29 10:11N 56°39' E 011°45'711.9
2016-Jul-29 09:34N 56°45' E 011°52'1211.8
2016-Jul-29 08:33N 56°56' E 011°45'1111.3
2016-Jul-29 07:33N 57°07' E 011°37'1111.5
2016-Jul-29 06:34N 57°18' E 011°30'1111.2
2016-Jul-29 05:34N 57°29' E 011°34'1211.9
2016-Jul-29 04:33N 57°39' E 011°44'5 4.8
2016-Jul-29 03:31N 57°41' E 011°52'0 0.0
2016-Jul-29 02:31N 57°41' E 011°52'0 0.0
2016-Jul-29 01:31N 57°41' E 011°52'0 0.0
2016-Jul-29 00:31N 57°41' E 011°52'0 0.0
2016-Jul-28 23:31N 57°41' E 011°52'0 0.0
2016-Jul-28 22:31N 57°41' E 011°52'0 0.0
2016-Jul-28 21:31N 57°41' E 011°52'0 0.0
2016-Jul-28 20:31N 57°41' E 011°52'0 0.0
2016-Jul-28 19:31N 57°41' E 011°52'0 0.0
2016-Jul-28 18:31N 57°41' E 011°52'0 0.0
2016-Jul-28 17:33N 57°41' E 011°52'0 0.0
2016-Jul-28 16:33N 57°41' E 011°52'1 1.1
2016-Jul-28 15:33N 57°41' E 011°51'2 2.0
2016-Jul-28 14:33N 57°40' E 011°47'0 0.0
2016-Jul-28 13:32N 57°40' E 011°47'0 0.0
2016-Jul-28 12:32N 57°40' E 011°47'0 0.0
2016-Jul-28 11:32N 57°40' E 011°47'0 0.0
2016-Jul-28 10:32N 57°40' E 011°47'0 0.0
2016-Jul-28 09:32N 57°40' E 011°47'0 0.0
2016-Jul-28 08:32N 57°40' E 011°47'0 0.0
2016-Jul-28 07:32N 57°40' E 011°47'2 2.1
2016-Jul-28 06:33N 57°41' E 011°51'1 1.0
2016-Jul-28 05:31N 57°41' E 011°53'0 0.0
2016-Jul-28 04:31N 57°41' E 011°53'0 0.0
2016-Jul-28 03:31N 57°41' E 011°53'0 0.0
2016-Jul-28 02:31N 57°41' E 011°53'0 0.0
2016-Jul-28 01:31N 57°41' E 011°53'0 0.0
2016-Jul-28 00:31N 57°41' E 011°53'0 0.0
2016-Jul-27 23:31N 57°41' E 011°53'0 0.0
2016-Jul-27 22:31N 57°41' E 011°53'0 0.4
2016-Jul-27 21:33N 57°41' E 011°52'10 9.7
2016-Jul-27 20:33N 57°35' E 011°38'1212.3
2016-Jul-27 19:34N 57°23' E 011°42'1211.9
2016-Jul-27 18:33N 57°13' E 011°53'1211.9
2016-Jul-27 17:33N 57°01' E 012°01'1212.1
2016-Jul-27 16:33N 56°50' E 012°08'1212.1
2016-Jul-27 15:33N 56°38' E 012°14'1211.9
2016-Jul-27 14:32N 56°26' E 012°19'1111.5
2016-Jul-27 13:33N 56°15' E 012°24'1212.5
2016-Jul-27 12:34N 56°05' E 012°36'1212.4
2016-Jul-27 11:34N 55°53' E 012°45'1211.9
2016-Jul-27 10:34N 55°43' E 012°53'10 9.5
2016-Jul-27 09:33N 55°34' E 012°48'1111.4
2016-Jul-27 08:33N 55°23' E 012°41'10 9.4
2016-Jul-27 07:33N 55°16' E 012°52'1211.6
2016-Jul-27 06:34N 55°15' E 013°12'1211.7
2016-Jul-27 05:33N 55°15' E 013°33'1211.7
2016-Jul-27 04:33N 55°14' E 013°53'1211.7
2016-Jul-27 03:33N 55°13' E 014°14'1111.1
2016-Jul-27 02:33N 55°21' E 014°27'1111.5
2016-Jul-27 01:33N 55°29' E 014°42'1211.7
2016-Jul-27 00:34N 55°35' E 014°60'1211.7
2016-Jul-26 23:33N 55°41' E 015°18'11411.5
2016-Jul-26 13:33N 56°45' E 018°09'1311.6
2016-Jul-26 12:28N 56°53' E 018°27'17611.7
2016-Jul-25 21:25N 59°13' E 021°47'1011.7
2016-Jul-25 20:33N 59°19' E 022°02'1211.7
2016-Jul-25 19:34N 59°26' E 022°20'1111.4
2016-Jul-25 18:33N 59°32' E 022°39'1211.6
2016-Jul-25 17:33N 59°35' E 023°01'1211.7
2016-Jul-25 16:34N 59°38' E 023°24'1211.7
2016-Jul-25 15:34N 59°41' E 023°46'1211.7
2016-Jul-25 14:33N 59°45' E 024°08'1411.7
2016-Jul-25 13:22N 59°48' E 024°35'1111.5
2016-Jul-25 12:27N 59°50' E 024°56'1111.6
2016-Jul-25 11:31N 59°52' E 025°17'1111.7
2016-Jul-25 10:34N 59°54' E 025°39'1211.7
2016-Jul-25 09:34N 59°58' E 026°01'8 8.3
2016-Jul-25 08:33N 60°03' E 026°14'1212.1
2016-Jul-25 07:33N 60°14' E 026°24'1212.5
2016-Jul-25 06:34N 60°22' E 026°43'1211.9
2016-Jul-25 05:32N 60°23' E 027°07'8 7.6
2016-Jul-25 04:32N 60°31' E 027°10'0 0.0
2016-Jul-25 03:32N 60°31' E 027°10'0 0.0
2016-Jul-25 02:32N 60°31' E 027°10'0 0.0
2016-Jul-25 01:29N 60°31' E 027°10'0 0.0
2016-Jul-25 00:32N 60°31' E 027°10'0 0.0
2016-Jul-24 23:32N 60°31' E 027°10'0 0.0
2016-Jul-24 22:29N 60°31' E 027°10'0 0.0
2016-Jul-24 21:32N 60°31' E 027°10'0 0.0
2016-Jul-24 20:32N 60°31' E 027°10'0 0.0
2016-Jul-24 14:31N 60°31' E 027°10'0 0.0
2016-Jul-24 13:31N 60°31' E 027°10'0 0.0
2016-Jul-24 12:31N 60°31' E 027°10'0 0.0
2016-Jul-24 11:31N 60°31' E 027°10'0 0.0
2016-Jul-24 10:07N 60°31' E 027°10'0 0.0
2016-Jul-24 09:31N 60°31' E 027°10'0 0.0
2016-Jul-24 08:31N 60°31' E 027°10'0 0.0
2016-Jul-24 06:22N 60°31' E 027°10'0 0.0
2016-Jul-24 05:34N 60°31' E 027°10'2 2.5
2016-Jul-24 04:34N 60°29' E 027°13'10 9.8
2016-Jul-24 03:34N 60°21' E 027°05'1312.8
2016-Jul-24 02:34N 60°21' E 026°39'1212.2
2016-Jul-24 01:34N 60°11' E 026°23'3311.1
2016-Jul-23 22:33N 59°51' E 025°30'1212.0
2016-Jul-23 21:33N 59°49' E 025°07'1212.0
2016-Jul-23 20:33N 59°46' E 024°44'1212.0
2016-Jul-23 19:34N 59°43' E 024°21'1211.9
2016-Jul-23 18:34N 59°39' E 023°58'2412.0
2016-Jul-23 16:33N 59°32' E 023°13'31011.5
2016-Jul-22 13:32N 55°55' E 016°19'1311.7
2016-Jul-22 12:27N 55°49' E 015°59'1011.7
2016-Jul-22 11:34N 55°44' E 015°43'1211.7
2016-Jul-22 10:29N 55°38' E 015°23'1111.7
2016-Jul-22 09:33N 55°32' E 015°06'1211.7
2016-Jul-22 08:34N 55°27' E 014°49'1211.6
2016-Jul-22 07:34N 55°19' E 014°33'2311.7
2016-Jul-22 05:34N 55°01' E 014°08'1111.4
2016-Jul-22 04:34N 54°57' E 013°49'1111.4
2016-Jul-22 03:34N 54°53' E 013°30'1211.5
2016-Jul-22 02:34N 54°50' E 013°11'1211.7
2016-Jul-22 01:34N 54°47' E 012°52'1111.3
2016-Jul-22 00:34N 54°42' E 012°34'1211.6
2016-Jul-21 23:34N 54°34' E 012°19'1111.1
2016-Jul-21 22:34N 54°24' E 012°09'1110.9
2016-Jul-21 21:34N 54°25' E 011°50'1010.4
2016-Jul-21 20:34N 54°28' E 011°33'1110.5
2016-Jul-21 19:34N 54°33' E 011°17'1010.0
2016-Jul-21 18:33N 54°38' E 011°02'9 9.4
2016-Jul-21 17:34N 54°45' E 010°51'1110.6
2016-Jul-21 16:34N 54°55' E 010°54'1010.1
2016-Jul-21 15:34N 55°04' E 011°02'1110.4
2016-Jul-21 14:31N 55°15' E 011°05'  

Dump ship's entire track history